Time,TemperatureF,DewpointF,PressureIn,WindDirection,WindDirectionDegrees,WindSpeedMPH,WindSpeedGustMPH,Humidity,HourlyPrecipIn,Conditions,Clouds,dailyrainin,SoftwareType,DateUTC
2013-08-30 00:14:00,82.0,75.0,29.96,NW,316,2.0,5.0,80,0.00,,,0.00,,2013-08-30 04:14:00,
2013-08-30 00:25:00,82.0,75.0,29.96,NNW,342,1.0,5.0,80,0.00,,,0.00,,2013-08-30 04:25:00,
2013-08-30 00:54:00,82.0,76.0,29.96,North,351,0.0,3.0,81,0.00,,,0.00,,2013-08-30 04:54:00,
2013-08-30 01:23:00,82.0,76.0,29.96,NNE,30,0.0,1.0,82,0.00,,,0.00,,2013-08-30 05:23:00,
2013-08-30 01:52:00,81.0,76.0,29.95,ENE,69,0.0,1.0,84,0.00,,,0.00,,2013-08-30 05:52:00,
2013-08-30 02:12:00,81.0,76.0,29.95,ENE,69,0.0,0.0,84,0.00,,,0.00,,2013-08-30 06:12:00,
2013-08-30 02:22:00,81.0,76.0,29.95,ENE,69,0.0,0.0,84,0.00,,,0.00,,2013-08-30 06:22:00,
2013-08-30 02:53:00,81.0,76.0,29.94,ENE,69,0.0,0.0,86,0.00,,,0.00,,2013-08-30 06:53:00,
2013-08-30 03:22:00,80.0,75.0,29.93,ENE,69,0.0,0.0,85,0.00,,,0.00,,2013-08-30 07:22:00,
2013-08-30 03:53:00,80.0,75.0,29.92,ENE,69,0.0,1.0,86,0.00,,,0.00,,2013-08-30 07:53:00,
2013-08-30 04:22:00,80.0,75.0,29.92,ENE,69,0.0,0.0,86,0.00,,,0.00,,2013-08-30 08:22:00,
2013-08-30 04:43:00,80.0,76.0,29.92,ENE,69,0.0,0.0,87,0.00,,,0.00,,2013-08-30 08:43:00,
2013-08-30 04:52:00,79.0,75.0,29.91,ENE,69,0.0,0.0,88,0.00,,,0.00,,2013-08-30 08:52:00,
2013-08-30 05:12:00,79.0,75.0,29.91,ENE,69,0.0,0.0,89,0.00,,,0.00,,2013-08-30 09:12:00,
2013-08-30 05:22:00,79.0,75.0,29.91,ENE,69,0.0,0.0,89,0.00,,,0.00,,2013-08-30 09:22:00,
2013-08-30 05:53:00,79.0,76.0,29.91,ENE,69,0.0,0.0,90,0.00,,,0.00,,2013-08-30 09:53:00,
2013-08-30 06:23:00,79.0,76.0,29.92,ENE,69,0.0,0.0,90,0.00,,,0.00,,2013-08-30 10:23:00,
2013-08-30 06:53:00,79.0,76.0,29.92,ENE,69,0.0,1.0,91,0.00,,,0.00,,2013-08-30 10:53:00,
2013-08-30 07:12:00,79.0,76.0,29.92,ENE,69,0.0,2.0,90,0.00,,,0.00,,2013-08-30 11:12:00,
2013-08-30 07:22:00,79.0,76.0,29.93,ENE,69,0.0,2.0,91,0.00,,,0.00,,2013-08-30 11:22:00,
2013-08-30 07:52:00,78.0,75.0,29.93,SSW,202,0.0,0.0,91,0.00,,,0.00,,2013-08-30 11:52:00,
2013-08-30 08:12:00,79.0,76.0,29.93,SSW,202,0.0,0.0,90,0.00,,,0.00,,2013-08-30 12:12:00,
2013-08-30 08:21:00,79.0,76.0,29.94,SSW,202,0.0,0.0,90,0.00,,,0.00,,2013-08-30 12:21:00,
2013-08-30 08:42:00,79.0,75.0,29.94,SSW,202,0.0,0.0,88,0.00,,,0.00,,2013-08-30 12:42:00,
2013-08-30 08:52:00,81.0,77.0,29.94,NNE,26,0.0,0.0,88,0.00,,,0.00,,2013-08-30 12:52:00,
2013-08-30 09:22:00,84.0,78.0,29.95,NNE,26,0.0,0.0,82,0.00,,,0.00,,2013-08-30 13:22:00,
2013-08-30 09:52:00,85.0,78.0,29.96,NNE,23,0.0,4.0,79,0.00,,,0.00,,2013-08-30 13:52:00,
2013-08-30 10:22:00,86.0,77.0,29.96,NNW,329,4.0,7.0,75,0.00,,,0.00,,2013-08-30 14:22:00,
2013-08-30 10:52:00,88.0,78.0,29.96,NNE,17,3.0,6.0,72,0.00,,,0.00,,2013-08-30 14:52:00,
2013-08-30 11:11:00,88.0,77.0,29.96,NNE,32,3.0,6.0,70,0.00,,,0.00,,2013-08-30 15:11:00,
2013-08-30 11:22:00,89.0,78.0,29.96,NNW,333,3.0,5.0,70,0.00,,,0.00,,2013-08-30 15:22:00,
2013-08-30 11:54:00,89.0,77.0,29.96,WNW,296,0.0,4.0,67,0.00,,,0.00,,2013-08-30 15:54:00,
2013-08-30 12:13:00,89.0,74.0,29.96,WSW,252,1.0,4.0,62,0.00,,,0.00,,2013-08-30 16:13:00,
2013-08-30 12:25:00,88.0,77.0,29.96,SSW,205,5.0,7.0,70,0.00,,,0.00,,2013-08-30 16:25:00,
2013-08-30 12:43:00,87.0,76.0,29.96,West,266,4.0,7.0,71,0.00,,,0.00,,2013-08-30 16:43:00,
2013-08-30 12:53:00,85.0,77.0,29.96,SW,236,4.0,9.0,76,0.02,,,0.02,,2013-08-30 16:53:00,
2013-08-30 13:23:00,80.0,75.0,29.95,NNW,341,9.0,16.0,85,0.28,,,0.28,,2013-08-30 17:23:00,
2013-08-30 13:53:00,78.0,74.0,29.96,East,91,0.0,0.0,89,0.41,,,0.43,,2013-08-30 17:53:00,
2013-08-30 14:22:00,78.0,74.0,29.94,South,175,1.0,3.0,89,0.14,,,0.43,,2013-08-30 18:22:00,
2013-08-30 14:52:00,78.0,75.0,29.93,SE,125,0.0,0.0,90,0.00,,,0.43,,2013-08-30 18:52:00,
2013-08-30 15:12:00,80.0,75.0,29.93,SSW,205,1.0,3.0,86,0.00,,,0.43,,2013-08-30 19:12:00,
2013-08-30 15:22:00,83.0,77.0,29.93,South,169,0.0,5.0,83,0.00,,,0.43,,2013-08-30 19:22:00,
2013-08-30 15:53:00,84.0,76.0,29.92,SSW,208,5.0,8.0,76,0.00,,,0.43,,2013-08-30 19:53:00,
2013-08-30 16:22:00,85.0,76.0,29.91,West,271,2.0,4.0,75,0.00,,,0.43,,2013-08-30 20:22:00,
2013-08-30 16:52:00,84.0,76.0,29.90,NW,305,6.0,13.0,78,0.00,,,0.43,,2013-08-30 20:52:00,
2013-08-30 17:22:00,83.0,77.0,29.89,West,267,2.0,4.0,81,0.06,,,0.49,,2013-08-30 21:22:00,
2013-08-30 17:55:00,83.0,76.0,29.88,West,278,3.0,5.0,80,0.06,,,0.49,,2013-08-30 21:55:00,
2013-08-30 18:24:00,84.0,75.0,29.89,NW,320,3.0,5.0,75,0.00,,,0.49,,2013-08-30 22:24:00,
2013-08-30 18:54:00,86.0,75.0,29.88,North,355,4.0,6.0,71,0.00,,,0.49,,2013-08-30 22:54:00,
2013-08-30 19:22:00,85.0,76.0,29.88,NNW,346,3.0,6.0,74,0.00,,,0.49,,2013-08-30 23:22:00,
2013-08-30 19:53:00,84.0,76.0,29.87,WNW,300,3.0,6.0,77,0.00,,,0.49,,2013-08-30 23:53:00,
2013-08-30 20:22:00,83.0,76.0,29.88,West,281,0.0,4.0,80,0.00,,,0.49,,2013-08-31 00:22:00,
2013-08-30 20:52:00,83.0,77.0,29.89,West,273,0.0,3.0,81,0.00,,,0.49,,2013-08-31 00:52:00,
2013-08-30 21:22:00,82.0,76.0,29.91,SSE,147,0.0,0.0,83,0.00,,,0.49,,2013-08-31 01:22:00,
2013-08-30 21:52:00,81.0,76.0,29.91,SSE,147,0.0,0.0,86,0.00,,,0.49,,2013-08-31 01:52:00,
2013-08-30 22:12:00,81.0,76.0,29.91,SSE,147,0.0,0.0,86,0.00,,,0.49,,2013-08-31 02:12:00,
2013-08-30 22:22:00,81.0,77.0,29.91,SSE,147,0.0,0.0,87,0.00,,,0.49,,2013-08-31 02:22:00,
2013-08-30 22:42:00,81.0,77.0,29.91,SSE,147,0.0,0.0,88,0.00,,,0.49,,2013-08-31 02:42:00,
2013-08-30 22:52:00,81.0,77.0,29.91,SSE,147,0.0,0.0,88,0.00,,,0.49,,2013-08-31 02:52:00,
2013-08-30 23:22:00,80.0,76.0,29.92,NNE,28,0.0,2.0,88,0.01,,,0.50,,2013-08-31 03:22:00,
2013-08-30 23:54:00,80.0,76.0,29.92,NNE,24,1.0,4.0,88,0.01,,,0.50,,2013-08-31 03:54:00,